createdAt,value
2023-11-23T00:01:19.768Z,3.92
2023-11-23T00:03:47.965Z,4.07
2023-11-23T00:06:17.725Z,3.83
2023-11-23T00:08:46.075Z,4.20
2023-11-23T00:11:14.454Z,4.18
2023-11-23T00:13:43.362Z,3.83
2023-11-23T00:16:11.801Z,3.40
2023-11-23T00:18:40.029Z,3.80
2023-11-23T00:21:08.321Z,4.18
2023-11-23T00:23:37.960Z,3.92
2023-11-23T00:26:06.833Z,4.10
2023-11-23T00:28:35.093Z,3.53
2023-11-23T00:31:03.264Z,3.72
2023-11-23T00:33:31.535Z,3.28
2023-11-23T00:35:59.897Z,4.03
2023-11-23T00:38:28.130Z,3.55
2023-11-23T00:40:58.003Z,3.53
2023-11-23T00:43:26.214Z,3.88
2023-11-23T00:45:54.401Z,3.47
2023-11-23T00:48:22.689Z,3.58
2023-11-23T00:50:51.241Z,3.27
2023-11-23T00:53:19.419Z,3.03
2023-11-23T00:55:47.548Z,3.78
2023-11-23T00:58:17.377Z,3.85
2023-11-23T01:00:45.593Z,4.28
2023-11-23T01:03:14.095Z,3.78
2023-11-23T01:05:42.453Z,3.97
2023-11-23T01:08:10.621Z,4.10
2023-11-23T01:10:38.994Z,3.80
2023-11-23T01:13:07.278Z,3.95
2023-11-23T01:15:36.811Z,3.17
2023-11-23T01:18:05.216Z,3.47
2023-11-23T01:20:33.478Z,4.03
2023-11-23T01:23:05.035Z,3.70
2023-11-23T01:25:33.197Z,4.25
2023-11-23T01:28:01.333Z,3.60
2023-11-23T01:30:29.503Z,3.72
2023-11-23T01:32:59.130Z,3.20
2023-11-23T01:35:27.416Z,3.40
2023-11-23T01:37:55.602Z,3.67
2023-11-23T01:40:23.737Z,3.90
2023-11-23T01:42:52.169Z,3.35
2023-11-23T01:45:20.343Z,3.63
2023-11-23T01:47:49.171Z,4.32
2023-11-23T01:50:20.149Z,3.92
2023-11-23T01:52:48.418Z,3.40
2023-11-23T01:55:17.283Z,4.18
2023-11-23T01:57:47.293Z,3.90
2023-11-23T02:00:15.888Z,4.00
2023-11-23T02:02:44.844Z,4.05
2023-11-23T02:05:13.954Z,3.67
2023-11-23T02:07:43.775Z,3.60
2023-11-23T02:10:12.235Z,3.90
2023-11-23T02:12:41.184Z,3.97
2023-11-23T02:15:12.026Z,4.20
2023-11-23T02:17:41.018Z,4.15
2023-11-23T02:20:11.786Z,4.07
2023-11-23T02:22:40.202Z,4.40
2023-11-23T02:25:10.536Z,4.38
2023-11-23T02:27:39.314Z,4.68
2023-11-23T02:30:09.102Z,4.18
2023-11-23T02:32:37.351Z,4.82
2023-11-23T02:35:06.597Z,4.10
2023-11-23T02:37:34.827Z,4.13
2023-11-23T02:40:02.998Z,4.65
2023-11-23T02:42:32.557Z,4.43
2023-11-23T02:45:01.179Z,4.07
2023-11-23T02:47:29.493Z,4.60
2023-11-23T02:49:57.693Z,4.55
2023-11-23T02:52:25.886Z,4.90
2023-11-23T02:54:54.122Z,4.80
2023-11-23T02:57:22.442Z,4.85
2023-11-23T02:59:52.435Z,4.78
2023-11-23T03:02:21.566Z,5.18
2023-11-23T03:04:49.841Z,5.25
2023-11-23T03:07:18.971Z,4.95
2023-11-23T03:09:47.411Z,5.70
2023-11-23T03:12:15.614Z,5.15
2023-11-23T03:14:43.870Z,5.55
2023-11-23T03:17:13.433Z,5.93
2023-11-23T03:19:41.926Z,5.25
2023-11-23T03:22:11.864Z,6.03
2023-11-23T03:24:40.119Z,5.90
2023-11-23T03:27:10.379Z,6.03
2023-11-23T03:29:38.736Z,6.90
2023-11-23T03:32:07.512Z,7.03
2023-11-23T03:34:38.324Z,6.60
2023-11-23T03:37:06.660Z,8.10
2023-11-23T03:39:34.842Z,6.27
2023-11-23T03:42:03.268Z,6.00
2023-11-23T03:44:31.480Z,6.70
2023-11-23T03:46:59.644Z,6.47
2023-11-23T03:49:27.817Z,7.43
2023-11-23T03:51:58.599Z,6.03
2023-11-23T03:54:26.740Z,6.83
2023-11-23T03:56:55.021Z,6.70
2023-11-23T03:59:23.203Z,7.13
2023-11-23T04:01:54.493Z,7.07
2023-11-23T04:04:22.714Z,6.32
2023-11-23T04:06:51.419Z,6.78
2023-11-23T04:09:21.062Z,6.93
2023-11-23T04:11:49.771Z,6.47
2023-11-23T04:14:18.079Z,6.40
2023-11-23T04:16:46.307Z,6.45
2023-11-23T04:19:15.013Z,6.07
2023-11-23T04:21:43.221Z,7.28
2023-11-23T04:24:11.663Z,6.80
2023-11-23T04:26:43.218Z,6.55
2023-11-23T04:29:12.076Z,6.25
2023-11-23T04:31:40.354Z,6.32
2023-11-23T04:34:11.557Z,5.75
2023-11-23T04:36:39.979Z,6.10
2023-11-23T04:39:09.178Z,6.72
2023-11-23T04:41:37.992Z,6.30
2023-11-23T04:44:08.289Z,6.43
2023-11-23T04:46:36.684Z,6.72
2023-11-23T04:49:05.062Z,6.18
2023-11-23T04:51:33.221Z,6.25
2023-11-23T04:54:01.422Z,6.35
2023-11-23T04:56:29.599Z,6.55
2023-11-23T04:58:57.928Z,6.50
2023-11-23T05:01:27.670Z,6.60
2023-11-23T05:03:56.002Z,6.63
2023-11-23T05:06:25.040Z,7.03
2023-11-23T05:08:53.634Z,6.75
2023-11-23T05:11:21.811Z,7.07
2023-11-23T05:13:50.085Z,6.88
2023-11-23T05:16:18.253Z,6.32
2023-11-23T05:18:47.933Z,7.38
2023-11-23T05:21:16.311Z,6.70
2023-11-23T05:23:44.502Z,7.65
2023-11-23T05:26:12.670Z,6.78
2023-11-23T05:28:40.837Z,7.65
2023-11-23T05:31:09.147Z,6.82
2023-11-23T05:33:38.513Z,6.60
2023-11-23T05:36:11.189Z,6.75
2023-11-23T05:38:39.370Z,6.82
2023-11-23T05:41:07.894Z,7.85
2023-11-23T05:43:36.081Z,6.90
2023-11-23T05:46:04.893Z,7.55
2023-11-23T05:48:33.239Z,6.80
2023-11-23T05:51:01.527Z,7.47
2023-11-23T05:53:31.762Z,7.32
2023-11-23T05:56:00.267Z,7.05
2023-11-23T05:58:28.526Z,7.45
2023-11-23T06:01:03.783Z,7.43
2023-11-23T06:03:38.754Z,7.28
2023-11-23T06:06:07.918Z,7.32
2023-11-23T06:08:37.695Z,8.15
2023-11-23T06:11:06.231Z,8.68
2023-11-23T06:13:37.565Z,8.10
2023-11-23T06:16:06.235Z,8.10
2023-11-23T06:18:34.568Z,8.13
2023-11-23T06:21:02.841Z,7.40
2023-11-23T06:23:31.180Z,8.40
2023-11-23T06:26:00.710Z,7.85
2023-11-23T06:28:28.939Z,7.47
2023-11-23T06:30:57.095Z,8.43
2023-11-23T06:33:25.348Z,8.82
2023-11-23T06:35:56.154Z,8.32
2023-11-23T06:38:25.384Z,9.15
2023-11-23T06:40:54.142Z,8.55
2023-11-23T06:43:23.697Z,8.30
2023-11-23T06:45:51.928Z,8.43
2023-11-23T06:48:20.260Z,8.40
2023-11-23T06:50:48.549Z,8.77
2023-11-23T06:53:17.054Z,8.52
2023-11-23T06:55:45.182Z,10.02
2023-11-23T06:58:13.368Z,9.40
2023-11-23T07:00:43.534Z,9.38
2023-11-23T07:03:12.427Z,8.77
2023-11-23T07:05:40.942Z,9.77
2023-11-23T07:08:09.122Z,9.50
2023-11-23T07:10:37.394Z,11.27
2023-11-23T07:13:05.544Z,9.73
2023-11-23T07:15:34.306Z,10.35
2023-11-23T07:18:04.804Z,10.20
2023-11-23T07:20:39.446Z,10.02
2023-11-23T07:23:07.622Z,9.80
2023-11-23T07:25:36.809Z,10.73
2023-11-23T07:28:05.264Z,10.60
2023-11-23T07:30:33.555Z,10.35
2023-11-23T07:33:04.267Z,10.00
2023-11-23T07:35:32.999Z,9.77
2023-11-23T07:38:04.212Z,11.02
2023-11-23T07:40:32.908Z,10.60
2023-11-23T07:43:01.193Z,10.82
2023-11-23T07:45:30.911Z,10.80
2023-11-23T07:47:59.437Z,10.95
2023-11-23T07:50:30.139Z,10.93
2023-11-23T07:52:58.300Z,10.82
2023-11-23T07:55:26.470Z,11.10
2023-11-23T07:57:54.765Z,11.93
2023-11-23T08:00:23.402Z,11.32
2023-11-23T08:02:51.804Z,12.40
2023-11-23T08:05:20.045Z,11.27
2023-11-23T08:07:51.392Z,11.65
2023-11-23T08:10:20.768Z,11.50
2023-11-23T08:12:48.964Z,12.05
2023-11-23T08:15:17.246Z,12.38
2023-11-23T08:17:54.657Z,11.45
2023-11-23T08:20:30.153Z,12.63
2023-11-23T08:22:59.713Z,12.85
2023-11-23T08:25:28.676Z,13.45
2023-11-23T08:27:56.905Z,14.18
2023-11-23T08:30:25.715Z,12.63
2023-11-23T08:32:54.131Z,13.15
2023-11-23T08:35:23.057Z,13.63
2023-11-23T08:37:51.172Z,14.10
2023-11-23T08:40:20.729Z,14.15
2023-11-23T08:42:49.021Z,14.63
2023-11-23T08:45:17.376Z,14.40
2023-11-23T08:47:45.651Z,16.15
2023-11-23T08:50:14.850Z,13.18
2023-11-23T08:52:43.078Z,15.30
2023-11-23T08:55:11.466Z,15.02
2023-11-23T08:57:44.231Z,16.77
2023-11-23T09:00:14.592Z,16.10
2023-11-23T09:02:44.638Z,16.67
2023-11-23T09:05:13.125Z,17.27
2023-11-23T09:07:41.592Z,17.05
2023-11-23T09:10:11.528Z,16.98
2023-11-23T09:12:39.740Z,17.27
2023-11-23T09:15:11.520Z,17.80
2023-11-23T09:17:39.975Z,18.55
2023-11-23T09:20:09.963Z,17.65
2023-11-23T09:22:38.670Z,17.85
2023-11-23T09:25:07.633Z,18.02
2023-11-23T09:27:36.475Z,18.10
2023-11-23T09:30:07.740Z,18.67
2023-11-23T09:32:38.020Z,18.88
2023-11-23T09:35:11.544Z,19.23
2023-11-23T09:37:40.745Z,18.77
2023-11-23T09:40:12.649Z,18.60
2023-11-23T09:42:40.951Z,18.30
2023-11-23T09:45:13.745Z,17.25
2023-11-23T09:47:44.450Z,18.35
2023-11-23T09:50:13.119Z,17.33
2023-11-23T09:52:43.195Z,16.98
2023-11-23T09:55:12.136Z,16.45
2023-11-23T09:57:40.960Z,15.75
2023-11-23T10:00:15.287Z,16.67
2023-11-23T10:02:50.166Z,17.48
2023-11-23T10:05:19.821Z,16.35
2023-11-23T10:07:50.893Z,17.65
2023-11-23T10:10:19.229Z,17.77
2023-11-23T10:12:47.401Z,17.77
2023-11-23T10:15:16.726Z,18.80
2023-11-23T10:17:46.340Z,18.17
2023-11-23T10:20:18.249Z,19.40
2023-11-23T10:22:47.026Z,18.63
2023-11-23T10:25:27.213Z,17.80
2023-11-23T10:27:59.570Z,18.50
2023-11-23T10:30:28.548Z,17.55
2023-11-23T10:32:59.137Z,18.92
2023-11-23T10:35:33.389Z,19.15
2023-11-23T10:38:02.891Z,19.85
2023-11-23T10:40:31.925Z,18.70
2023-11-23T10:43:02.761Z,18.67
2023-11-23T10:45:33.736Z,18.42
2023-11-23T10:48:06.381Z,17.50
2023-11-23T10:50:35.033Z,17.33
2023-11-23T10:53:04.508Z,19.25
2023-11-23T10:55:32.702Z,18.25
2023-11-23T10:58:08.813Z,17.63
2023-11-23T11:00:40.861Z,18.42
2023-11-23T11:03:12.715Z,17.48
2023-11-23T11:05:46.722Z,18.30
2023-11-23T11:08:19.699Z,16.40
2023-11-23T11:10:51.336Z,17.75
2023-11-23T11:13:22.626Z,19.02
2023-11-23T11:15:53.153Z,17.40
2023-11-23T11:18:26.900Z,18.42
2023-11-23T11:21:02.633Z,17.83
2023-11-23T11:23:41.530Z,19.40
2023-11-23T11:26:12.088Z,18.52
2023-11-23T11:28:41.370Z,19.33
2023-11-23T11:31:14.666Z,19.27
2023-11-23T11:33:44.579Z,19.25
2023-11-23T11:36:14.362Z,18.92
2023-11-23T11:38:55.480Z,20.30
2023-11-23T11:41:26.284Z,20.38
2023-11-23T11:43:56.870Z,20.70
2023-11-23T11:46:25.096Z,21.00
2023-11-23T11:48:54.707Z,20.95
2023-11-23T11:51:23.004Z,20.40
2023-11-23T11:53:51.337Z,21.70
2023-11-23T11:56:20.042Z,20.15
2023-11-23T11:58:48.785Z,20.80
2023-11-23T12:01:17.217Z,22.40
2023-11-23T12:03:46.937Z,20.95
2023-11-23T12:06:21.811Z,19.92
2023-11-23T12:08:50.938Z,21.48
2023-11-23T12:11:29.024Z,21.35
2023-11-23T12:14:01.849Z,21.15
2023-11-23T12:16:37.498Z,22.25
2023-11-23T12:19:20.715Z,20.80
2023-11-23T12:21:57.671Z,22.27
2023-11-23T12:24:27.271Z,22.00
2023-11-23T12:26:56.807Z,21.95
2023-11-23T12:29:25.317Z,22.90
2023-11-23T12:31:54.092Z,21.90
2023-11-23T12:34:22.562Z,21.52
2023-11-23T12:36:50.833Z,21.52
2023-11-23T12:39:21.176Z,20.20
2023-11-23T12:41:54.961Z,22.17
2023-11-23T12:44:23.969Z,21.90
2023-11-23T12:46:52.982Z,21.38
2023-11-23T12:49:21.571Z,21.42
2023-11-23T12:51:50.544Z,20.40
2023-11-23T12:54:20.408Z,21.90
2023-11-23T12:56:48.629Z,21.73
2023-11-23T12:59:18.107Z,20.05
2023-11-23T13:01:46.406Z,21.05
2023-11-23T13:04:15.344Z,22.98
2023-11-23T13:06:43.834Z,21.75
2023-11-23T13:09:17.225Z,21.55
2023-11-23T13:11:46.970Z,21.40
2023-11-23T13:14:16.741Z,20.85
2023-11-23T13:16:46.007Z,20.30
2023-11-23T13:19:26.106Z,21.27
2023-11-23T13:22:02.494Z,19.85
2023-11-23T13:24:31.354Z,20.45
2023-11-23T13:27:01.036Z,21.52
2023-11-23T13:29:29.394Z,20.75
2023-11-23T13:31:59.093Z,21.75
2023-11-23T13:34:28.142Z,21.55
2023-11-23T13:36:56.345Z,22.10
2023-11-23T13:39:24.883Z,21.10
2023-11-23T13:41:53.140Z,19.85
2023-11-23T13:44:22.824Z,19.70
2023-11-23T13:46:51.148Z,20.27
2023-11-23T13:49:19.408Z,20.55
2023-11-23T13:51:47.635Z,20.38
2023-11-23T13:54:15.954Z,20.73
2023-11-23T13:56:44.514Z,18.65
2023-11-23T13:59:13.051Z,20.38
2023-11-23T14:01:43.158Z,20.38
2023-11-23T14:04:14.288Z,20.42
2023-11-23T14:06:44.111Z,20.45
2023-11-23T14:09:19.349Z,18.27
2023-11-23T14:11:48.972Z,18.50
2023-11-23T14:14:17.600Z,17.88
2023-11-23T14:16:47.373Z,18.48
2023-11-23T14:19:17.685Z,18.80
2023-11-23T14:21:47.815Z,19.25
2023-11-23T14:24:17.025Z,17.75
2023-11-23T14:26:45.466Z,18.05
2023-11-23T14:29:13.698Z,19.13
2023-11-23T14:31:43.185Z,18.95
2023-11-23T14:34:12.953Z,18.95
2023-11-23T14:36:42.368Z,18.00
2023-11-23T14:39:10.967Z,17.50
2023-11-23T14:41:39.263Z,17.58
2023-11-23T14:44:07.617Z,17.08
2023-11-23T14:46:36.321Z,17.77
2023-11-23T14:49:06.292Z,18.10
2023-11-23T14:51:36.326Z,17.23
2023-11-23T14:54:10.569Z,16.45
2023-11-23T14:56:41.285Z,16.77
2023-11-23T14:59:10.725Z,16.90
2023-11-23T15:01:39.355Z,14.95
2023-11-23T15:04:08.688Z,15.95
2023-11-23T15:06:38.884Z,16.13
2023-11-23T15:09:08.220Z,16.85
2023-11-23T15:11:36.955Z,16.05
2023-11-23T15:14:05.356Z,15.77
2023-11-23T15:16:34.120Z,15.93
2023-11-23T15:19:04.006Z,15.50
2023-11-23T15:21:32.355Z,15.98
2023-11-23T15:24:02.262Z,15.23
2023-11-23T15:26:31.174Z,15.23
2023-11-23T15:29:00.917Z,15.15
2023-11-23T15:31:32.935Z,14.65
2023-11-23T15:34:01.513Z,15.27
2023-11-23T15:36:29.991Z,15.38
2023-11-23T15:38:58.235Z,15.98
2023-11-23T15:41:27.901Z,15.65
2023-11-23T15:43:56.136Z,14.88
2023-11-23T15:46:27.241Z,15.52
2023-11-23T15:48:55.774Z,16.00
2023-11-23T15:51:25.142Z,15.38
2023-11-23T15:53:54.317Z,14.57
2023-11-23T15:56:25.356Z,14.15
2023-11-23T15:58:55.279Z,14.30
2023-11-23T16:01:27.493Z,14.75
2023-11-23T16:03:56.976Z,13.80
2023-11-23T16:06:25.392Z,13.25
2023-11-23T16:08:57.045Z,13.75
2023-11-23T16:11:26.863Z,13.38
2023-11-23T16:13:56.533Z,11.93
2023-11-23T16:16:24.678Z,12.63
2023-11-23T16:18:52.842Z,11.70
2023-11-23T16:21:21.118Z,12.70
2023-11-23T16:23:49.358Z,12.05
2023-11-23T16:26:18.767Z,11.35
2023-11-23T16:28:47.034Z,12.35
2023-11-23T16:31:17.175Z,11.38
2023-11-23T16:33:45.738Z,11.98
2023-11-23T16:36:26.330Z,11.57
2023-11-23T16:39:01.809Z,10.70
2023-11-23T16:41:29.962Z,11.35
2023-11-23T16:43:58.193Z,12.57
2023-11-23T16:46:27.741Z,12.68
2023-11-23T16:48:56.176Z,13.27
2023-11-23T16:51:26.795Z,12.73
2023-11-23T16:53:56.316Z,13.65
2023-11-23T16:56:24.473Z,11.77
2023-11-23T16:58:52.713Z,10.93
2023-11-23T17:01:21.015Z,11.13
2023-11-23T17:03:51.578Z,11.15
2023-11-23T17:06:19.880Z,9.80
2023-11-23T17:08:48.224Z,11.27
2023-11-23T17:11:18.340Z,9.73
2023-11-23T17:13:46.679Z,11.40
2023-11-23T17:16:14.919Z,10.18
2023-11-23T17:18:43.257Z,10.70
2023-11-23T17:21:14.609Z,12.60
2023-11-23T17:23:43.064Z,11.10
2023-11-23T17:26:15.434Z,11.68
2023-11-23T17:28:44.200Z,11.82
2023-11-23T17:31:16.158Z,11.73
2023-11-23T17:33:44.404Z,12.45
2023-11-23T17:36:14.016Z,12.23
2023-11-23T17:38:42.271Z,12.60
2023-11-23T17:41:11.452Z,13.48
2023-11-23T17:43:39.744Z,13.73
2023-11-23T17:46:08.377Z,13.55
2023-11-23T17:48:37.598Z,14.63
2023-11-23T17:51:06.360Z,13.13
2023-11-23T17:53:37.488Z,12.95
2023-11-23T17:56:08.188Z,13.05
2023-11-23T17:58:37.762Z,11.43
2023-11-23T18:01:06.540Z,11.82
2023-11-23T18:03:35.192Z,11.55
2023-11-23T18:06:03.445Z,11.82
2023-11-23T18:08:31.723Z,10.98
2023-11-23T18:11:01.304Z,14.40
2023-11-23T18:13:29.877Z,11.82
2023-11-23T18:15:58.449Z,11.00
2023-11-23T18:18:26.904Z,11.63
2023-11-23T18:20:57.477Z,10.85
2023-11-23T18:23:28.225Z,10.38
2023-11-23T18:25:56.873Z,12.35
2023-11-23T18:28:26.492Z,12.52
2023-11-23T18:30:55.046Z,11.90
2023-11-23T18:33:23.755Z,12.50
2023-11-23T18:35:51.999Z,11.77
2023-11-23T18:38:20.259Z,10.07
2023-11-23T18:40:48.782Z,13.88
2023-11-23T18:43:16.952Z,13.40
2023-11-23T18:45:46.874Z,13.82
2023-11-23T18:48:16.217Z,11.50
2023-11-23T18:50:45.516Z,12.60
2023-11-23T18:53:13.761Z,13.13
2023-11-23T18:55:42.424Z,10.65
2023-11-23T18:58:10.586Z,11.00
2023-11-23T19:00:38.769Z,8.68
2023-11-23T19:03:08.444Z,8.82
2023-11-23T19:05:36.878Z,9.00
2023-11-23T19:08:05.671Z,7.75
2023-11-23T19:10:34.010Z,7.60
2023-11-23T19:13:06.731Z,8.15
2023-11-23T19:15:36.287Z,7.35
2023-11-23T19:18:05.225Z,7.05
2023-11-23T19:20:38.855Z,8.05
2023-11-23T19:23:09.457Z,6.88
2023-11-23T19:25:38.135Z,7.00
2023-11-23T19:28:07.043Z,6.57
2023-11-23T19:30:36.076Z,6.57
2023-11-23T19:33:08.398Z,7.05
2023-11-23T19:35:39.122Z,7.15
2023-11-23T19:38:08.377Z,6.63
2023-11-23T19:40:37.209Z,6.20
2023-11-23T19:43:05.914Z,6.93
2023-11-23T19:45:34.671Z,6.00
2023-11-23T19:48:03.541Z,6.10
2023-11-23T19:50:33.349Z,5.90
2023-11-23T19:53:05.401Z,5.82
2023-11-23T19:55:34.667Z,6.00
2023-11-23T19:58:02.862Z,5.40
2023-11-23T20:00:31.229Z,4.78
2023-11-23T20:03:00.285Z,4.72
2023-11-23T20:05:28.474Z,4.70
2023-11-23T20:07:56.680Z,4.95
2023-11-23T20:10:26.315Z,4.80
2023-11-23T20:12:54.605Z,4.50
2023-11-23T20:15:23.081Z,5.50
2023-11-23T20:17:52.090Z,4.32
2023-11-23T20:20:20.679Z,3.55
2023-11-23T20:22:50.241Z,3.92
2023-11-23T20:25:19.134Z,3.40
2023-11-23T20:27:48.934Z,3.60
2023-11-23T20:30:18.133Z,3.03
2023-11-23T20:32:46.408Z,3.20
2023-11-23T20:35:14.714Z,3.20
2023-11-23T20:37:42.938Z,3.00
2023-11-23T20:40:12.322Z,2.95
2023-11-23T20:42:41.070Z,3.25
2023-11-23T20:45:11.962Z,3.58
2023-11-23T20:47:40.509Z,3.45
2023-11-23T20:50:10.060Z,2.85
2023-11-23T20:52:40.505Z,3.10
2023-11-23T20:55:11.864Z,2.42
2023-11-23T20:57:41.817Z,2.83
2023-11-23T21:00:16.690Z,3.00
2023-11-23T21:02:45.642Z,2.60
2023-11-23T21:05:16.313Z,2.88
2023-11-23T21:07:45.735Z,2.95
2023-11-23T21:10:14.692Z,3.00
2023-11-23T21:12:43.105Z,2.83
2023-11-23T21:15:13.562Z,2.90
2023-11-23T21:17:42.366Z,2.80
2023-11-23T21:20:14.481Z,2.15
2023-11-23T21:22:43.460Z,2.45
2023-11-23T21:25:11.740Z,2.45
2023-11-23T21:27:40.088Z,1.92
2023-11-23T21:30:10.400Z,2.40
2023-11-23T21:32:40.507Z,2.15
2023-11-23T21:35:10.057Z,2.00
2023-11-23T21:37:38.593Z,2.55
2023-11-23T21:40:10.844Z,2.20
2023-11-23T21:42:39.033Z,2.15
2023-11-23T21:45:08.584Z,1.05
2023-11-23T21:47:38.399Z,0.98
2023-11-23T21:50:10.594Z,1.38
2023-11-23T21:52:40.371Z,1.30
2023-11-23T21:55:09.348Z,1.10
2023-11-23T21:57:37.794Z,0.95
2023-11-23T22:00:09.072Z,0.95
2023-11-23T22:02:37.405Z,0.60
2023-11-23T22:05:06.205Z,0.75
2023-11-23T22:07:35.914Z,0.80
2023-11-23T22:10:04.509Z,0.70
2023-11-23T22:12:32.942Z,0.50
2023-11-23T22:15:01.157Z,0.80
2023-11-23T22:17:29.829Z,1.50
2023-11-23T22:20:01.324Z,1.50
2023-11-23T22:22:30.020Z,0.85
2023-11-23T22:25:00.585Z,0.90
2023-11-23T22:27:30.201Z,0.80
2023-11-23T22:29:59.474Z,0.90
2023-11-23T22:32:28.708Z,0.80
2023-11-23T22:34:57.619Z,0.70
2023-11-23T22:37:26.433Z,1.30
2023-11-23T22:39:55.813Z,1.20
2023-11-23T22:42:29.631Z,1.52
2023-11-23T22:44:58.412Z,1.33
2023-11-23T22:47:29.791Z,1.65
2023-11-23T22:49:58.080Z,1.60
2023-11-23T22:52:26.529Z,1.30
2023-11-23T22:54:54.742Z,1.45
2023-11-23T22:57:24.407Z,1.45
2023-11-23T22:59:53.984Z,1.40
2023-11-23T23:02:22.472Z,1.45
2023-11-23T23:04:52.410Z,1.70
2023-11-23T23:07:20.901Z,1.40
2023-11-23T23:09:49.219Z,1.52
2023-11-23T23:12:17.451Z,1.70
2023-11-23T23:14:45.837Z,1.30
2023-11-23T23:17:18.216Z,1.60
2023-11-23T23:19:46.870Z,1.52
2023-11-23T23:22:24.289Z,1.70
2023-11-23T23:24:57.514Z,1.65
2023-11-23T23:27:26.129Z,2.08
2023-11-23T23:29:54.305Z,1.88
2023-11-23T23:32:24.884Z,1.40
2023-11-23T23:34:54.235Z,1.48
2023-11-23T23:37:22.536Z,1.08
2023-11-23T23:39:51.016Z,1.70
2023-11-23T23:42:19.405Z,1.80
2023-11-23T23:44:48.012Z,1.30
2023-11-23T23:47:16.300Z,1.30
2023-11-23T23:49:45.990Z,1.20
2023-11-23T23:52:14.123Z,1.10
2023-11-23T23:54:42.922Z,1.95
2023-11-23T23:57:11.479Z,1.00
2023-11-23T23:59:39.746Z,1.17
